createdAt,value
2022-10-18T00:08:06.903Z,78.10
2022-10-18T00:18:09.147Z,76.43
2022-10-18T00:28:11.158Z,75.70
2022-10-18T00:38:16.379Z,75.96
2022-10-18T00:48:19.533Z,76.21
2022-10-18T00:58:24.780Z,76.12
2022-10-18T01:08:35.242Z,76.62
2022-10-18T01:18:52.130Z,76.83
2022-10-18T01:29:15.802Z,77.31
2022-10-18T01:39:29.667Z,77.50
2022-10-18T01:49:33.522Z,77.19
2022-10-18T01:59:47.257Z,76.23
2022-10-18T02:10:00.274Z,76.43
2022-10-18T02:20:05.794Z,76.17
2022-10-18T02:30:10.514Z,76.60
2022-10-18T02:40:12.711Z,76.40
2022-10-18T02:50:16.609Z,76.42
2022-10-18T03:00:18.801Z,76.10
2022-10-18T03:10:23.849Z,76.51
2022-10-18T03:20:29.150Z,76.43
2022-10-18T03:30:32.632Z,75.94
2022-10-18T03:40:36.984Z,75.72
2022-10-18T03:50:41.419Z,75.55
2022-10-18T04:00:54.739Z,75.76
2022-10-18T04:11:01.604Z,75.11
2022-10-18T04:21:03.666Z,74.79
2022-10-18T04:31:08.263Z,74.44
2022-10-18T04:41:12.297Z,74.20
2022-10-18T04:51:14.307Z,74.40
2022-10-18T05:01:19.182Z,74.02
2022-10-18T05:11:25.919Z,74.64
2022-10-18T05:21:33.296Z,74.63
2022-10-18T05:31:38.301Z,74.55
2022-10-18T05:41:42.819Z,74.13
2022-10-18T05:51:47.076Z,73.67
2022-10-18T06:01:53.574Z,72.84
2022-10-18T06:12:01.008Z,71.00
2022-10-18T06:22:05.442Z,68.86
2022-10-18T06:32:10.576Z,68.45
2022-10-18T06:42:19.179Z,68.61
2022-10-18T06:52:25.888Z,68.05
2022-10-18T07:02:28.366Z,66.84
2022-10-18T07:12:31.662Z,67.21
2022-10-18T07:22:34.569Z,66.24
2022-10-18T07:32:41.087Z,66.88
2022-10-18T07:42:45.695Z,66.55
2022-10-18T07:52:48.151Z,65.73
2022-10-18T08:02:50.202Z,65.50
2022-10-18T08:12:54.770Z,66.57
2022-10-18T08:23:00.091Z,66.21
2022-10-18T08:33:04.585Z,65.56
2022-10-18T08:43:26.867Z,62.63
2022-10-18T08:53:43.758Z,60.67
2022-10-18T09:04:15.150Z,58.57
2022-10-18T09:14:23.630Z,61.20
2022-10-18T09:24:36.417Z,62.26
2022-10-18T09:34:55.473Z,62.78
2022-10-18T09:45:16.846Z,63.71
2022-10-18T09:55:26.960Z,65.58
2022-10-18T10:05:35.347Z,64.84
2022-10-18T10:15:40.520Z,65.09
2022-10-18T10:25:56.184Z,66.83
2022-10-18T10:36:03.383Z,65.07
2022-10-18T10:46:19.899Z,65.19
2022-10-18T10:56:29.395Z,66.05
2022-10-18T11:06:45.323Z,65.68
2022-10-18T11:17:21.195Z,66.73
2022-10-18T11:27:38.712Z,69.29
2022-10-18T11:38:05.933Z,70.53
2022-10-18T11:48:48.142Z,72.52
2022-10-18T11:58:58.442Z,71.61
2022-10-18T12:09:24.494Z,71.32
2022-10-18T12:19:33.182Z,70.39
2022-10-18T12:29:50.215Z,69.79
2022-10-18T12:40:09.747Z,70.43
2022-10-18T12:50:57.798Z,71.30
2022-10-18T13:01:02.470Z,72.67
2022-10-18T13:11:09.172Z,73.48
2022-10-18T13:21:44.749Z,73.48
2022-10-18T13:32:02.057Z,73.59
2022-10-18T13:42:04.433Z,74.72
2022-10-18T13:52:28.254Z,75.53
2022-10-18T14:03:12.868Z,76.61
2022-10-18T14:13:38.448Z,78.20
2022-10-18T14:23:44.791Z,79.99
2022-10-18T14:33:58.002Z,81.56
2022-10-18T14:44:35.768Z,82.87
2022-10-18T14:54:40.385Z,85.44
2022-10-18T15:04:44.974Z,88.66
2022-10-18T15:14:52.494Z,98.83
2022-10-18T15:25:33.929Z,100.00
2022-10-18T15:35:38.912Z,100.00
2022-10-18T15:56:03.047Z,100.00
2022-10-18T16:06:12.277Z,100.00
2022-10-18T16:16:27.202Z,100.00
2022-10-18T16:26:32.368Z,100.00
2022-10-18T16:36:39.941Z,100.00
2022-10-18T16:46:52.426Z,100.00
2022-10-18T16:56:59.060Z,100.00
2022-10-18T17:07:04.931Z,100.00
2022-10-18T17:17:07.118Z,100.00
2022-10-18T17:27:10.606Z,100.00
2022-10-18T17:37:13.867Z,100.00
2022-10-18T17:47:15.896Z,100.00
2022-10-18T17:57:40.904Z,100.00
2022-10-18T18:07:56.123Z,100.00
2022-10-18T18:17:58.499Z,100.00
2022-10-18T18:28:06.595Z,100.00
2022-10-18T18:38:09.588Z,100.00
2022-10-18T18:48:19.089Z,100.00
2022-10-18T18:58:27.830Z,100.00
2022-10-18T19:08:29.810Z,100.00
2022-10-18T19:18:36.016Z,100.00
2022-10-18T19:28:41.007Z,100.00
2022-10-18T19:38:45.495Z,100.00
2022-10-18T19:48:54.258Z,100.00
2022-10-18T19:59:04.282Z,100.00
2022-10-18T20:09:17.685Z,100.00
2022-10-18T20:19:22.598Z,100.00
2022-10-18T20:29:27.009Z,100.00
2022-10-18T20:39:31.401Z,100.00
2022-10-18T20:49:33.423Z,100.00
2022-10-18T20:59:35.996Z,100.00
2022-10-18T21:09:38.108Z,100.00
2022-10-18T21:19:40.184Z,100.00
2022-10-18T21:29:42.339Z,100.00
2022-10-18T21:39:47.850Z,100.00
2022-10-18T21:49:49.831Z,100.00
2022-10-18T21:59:56.619Z,100.00
2022-10-18T22:09:59.633Z,100.00
2022-10-18T22:20:01.768Z,100.00
2022-10-18T22:30:03.980Z,100.00
2022-10-18T22:40:06.708Z,100.00
2022-10-18T22:50:09.330Z,100.00
2022-10-18T23:00:18.593Z,100.00
2022-10-18T23:10:23.005Z,100.00
2022-10-18T23:20:30.601Z,100.00
2022-10-18T23:30:37.109Z,100.00
2022-10-18T23:40:46.597Z,100.00
2022-10-18T23:50:48.693Z,100.00
